Beattyville, Kentucky
Current Conditions -  °F | °C
As of 6:53 AM on Sunday 23 Nov 2014 (Local Time) from KJKL Reporting Station
Overcast Overcast  
Wind Chill: 50°   Ceiling: 10000
Heat Index: 50°   Visibility: 10mi
Dew Point: 32°   Wind: 6mph
Humidity: 50%   Direction: 110°ESE
Pressure: 30.05"   Gusts: NA
Location:  37.57°N, 83.71°W
Report Text: KJKL 231153Z AUTO 11005KT 10SM SCT050 OVC100 10/00 A3005 RMK AO2 SLP175 T01000000 10111 20094 55012
Loading
Personal Weather Stations






























Interactive Weather Map New forecast layout! Learn more

10-Day Weather Forecast

Advertisements
Track Severe Weather on mobile